createdAt,value
2023-01-26T00:01:12.826Z,65.80
2023-01-26T00:03:45.130Z,98.57
2023-01-26T00:06:19.165Z,147.95
2023-01-26T00:08:53.348Z,112.03
2023-01-26T00:11:27.498Z,76.15
2023-01-26T00:14:01.348Z,67.35
2023-01-26T00:16:33.359Z,64.65
2023-01-26T00:19:05.689Z,56.55
2023-01-26T00:21:37.724Z,60.45
2023-01-26T00:24:09.699Z,73.38
2023-01-26T00:26:41.699Z,80.03
2023-01-26T00:29:13.684Z,87.72
2023-01-26T00:31:45.712Z,74.05
2023-01-26T00:34:17.670Z,73.93
2023-01-26T00:36:49.667Z,70.68
2023-01-26T00:39:21.722Z,64.15
2023-01-26T00:42:11.800Z,66.68
2023-01-26T00:44:44.232Z,65.20
2023-01-26T00:47:16.975Z,63.13
2023-01-26T00:49:48.922Z,64.82
2023-01-26T00:52:20.908Z,65.00
2023-01-26T00:54:52.880Z,61.47
2023-01-26T00:57:24.866Z,62.78
2023-01-26T00:59:56.812Z,55.42
2023-01-26T01:02:28.843Z,50.45
2023-01-26T01:05:00.825Z,59.60
2023-01-26T01:07:32.848Z,59.33
2023-01-26T01:10:05.083Z,57.90
2023-01-26T01:12:37.207Z,61.00
2023-01-26T01:15:09.733Z,64.38
2023-01-26T01:17:42.255Z,69.47
2023-01-26T01:20:14.366Z,60.35
2023-01-26T01:22:46.431Z,59.45
2023-01-26T01:25:18.331Z,57.92
2023-01-26T01:27:50.245Z,58.33
2023-01-26T01:30:22.187Z,62.78
2023-01-26T01:32:54.167Z,61.63
2023-01-26T01:35:26.124Z,61.88
2023-01-26T01:37:58.107Z,63.40
2023-01-26T01:40:30.135Z,63.78
2023-01-26T01:43:02.102Z,65.95
2023-01-26T01:45:43.213Z,64.68
2023-01-26T01:48:42.452Z,57.20
2023-01-26T01:51:20.250Z,60.42
2023-01-26T01:53:53.687Z,66.40
2023-01-26T01:56:29.840Z,60.00
2023-01-26T01:59:05.029Z,63.20
2023-01-26T02:01:37.259Z,60.70
2023-01-26T02:04:10.165Z,62.28
2023-01-26T02:06:52.191Z,67.78
2023-01-26T02:09:50.364Z,64.43
2023-01-26T02:12:28.120Z,63.50
2023-01-26T02:15:01.707Z,67.45
2023-01-26T02:17:33.721Z,62.17
2023-01-26T02:20:11.018Z,70.43
2023-01-26T02:22:49.533Z,64.65
2023-01-26T02:25:37.515Z,69.13
2023-01-26T02:28:09.591Z,67.90
2023-01-26T02:30:41.628Z,62.38
2023-01-26T02:33:21.890Z,68.22
2023-01-26T02:35:53.930Z,66.60
2023-01-26T02:38:31.138Z,63.92
2023-01-26T02:41:08.052Z,68.60
2023-01-26T02:43:40.563Z,60.58
2023-01-26T02:46:12.586Z,69.97
2023-01-26T02:49:03.287Z,72.28
2023-01-26T02:51:35.307Z,67.70
2023-01-26T02:54:07.272Z,67.82
2023-01-26T02:56:42.350Z,67.68
2023-01-26T02:59:14.268Z,68.82
2023-01-26T03:01:50.508Z,70.78
2023-01-26T03:04:22.510Z,70.45
2023-01-26T03:06:54.544Z,68.78
2023-01-26T03:09:26.477Z,66.13
2023-01-26T03:11:58.483Z,78.47
2023-01-26T03:14:30.545Z,66.47
2023-01-26T03:17:02.514Z,66.80
2023-01-26T03:19:52.959Z,74.15
2023-01-26T03:22:43.661Z,65.53
2023-01-26T03:25:34.452Z,71.20
2023-01-26T03:30:38.278Z,63.00
2023-01-26T03:33:10.198Z,68.55
2023-01-26T03:35:42.196Z,64.35
2023-01-26T03:38:14.175Z,78.40
2023-01-26T03:41:04.696Z,80.13
2023-01-26T03:43:55.317Z,80.78
2023-01-26T03:46:46.215Z,81.72
2023-01-26T03:52:27.252Z,73.82
2023-01-26T03:55:18.053Z,83.82
2023-01-26T04:00:22.209Z,80.32
2023-01-26T04:03:12.987Z,74.25
2023-01-26T04:06:16.422Z,79.38
2023-01-26T04:08:48.743Z,71.28
2023-01-26T04:11:20.691Z,67.28
2023-01-26T04:14:11.120Z,67.70
2023-01-26T04:17:01.750Z,73.20
2023-01-26T04:19:52.575Z,63.17
2023-01-26T04:24:57.576Z,69.93
2023-01-26T04:27:29.493Z,65.25
2023-01-26T04:30:05.094Z,69.78
2023-01-26T04:32:37.209Z,70.20
2023-01-26T04:35:10.591Z,66.65
2023-01-26T04:37:43.084Z,59.30
2023-01-26T04:40:15.147Z,66.00
2023-01-26T04:42:47.283Z,63.00
2023-01-26T04:45:19.180Z,62.53
2023-01-26T04:47:51.244Z,61.85
2023-01-26T04:50:23.220Z,67.15
2023-01-26T04:52:55.138Z,66.57
2023-01-26T04:55:27.077Z,67.20
2023-01-26T04:57:59.068Z,64.07
2023-01-26T05:00:31.039Z,69.53
2023-01-26T05:03:02.991Z,64.75
2023-01-26T05:05:39.142Z,64.25
2023-01-26T05:08:11.284Z,60.67
2023-01-26T05:10:43.554Z,64.63
2023-01-26T05:13:15.999Z,63.55
2023-01-26T05:15:48.199Z,65.07
2023-01-26T05:18:20.199Z,53.60
2023-01-26T05:20:52.208Z,65.15
2023-01-26T05:23:24.300Z,63.35
2023-01-26T05:25:56.273Z,65.43
2023-01-26T05:28:28.485Z,70.97
2023-01-26T05:31:00.537Z,61.85
2023-01-26T05:33:32.740Z,64.05
2023-01-26T05:36:07.071Z,59.67
2023-01-26T05:38:39.019Z,56.20
2023-01-26T05:41:10.952Z,61.97
2023-01-26T05:43:42.876Z,58.85
2023-01-26T05:46:14.879Z,52.92
2023-01-26T05:48:46.867Z,51.42
2023-01-26T05:51:18.889Z,57.95
2023-01-26T05:53:50.831Z,48.25
2023-01-26T05:56:22.762Z,49.17
2023-01-26T05:58:54.725Z,52.38
2023-01-26T06:01:26.682Z,45.35
2023-01-26T06:03:58.680Z,46.13
2023-01-26T06:06:30.703Z,50.88
2023-01-26T06:09:02.736Z,51.85
2023-01-26T06:11:34.717Z,42.42
2023-01-26T06:14:07.156Z,47.38
2023-01-26T06:16:39.250Z,42.13
2023-01-26T06:19:12.025Z,43.20
2023-01-26T06:21:43.965Z,41.78
2023-01-26T06:24:16.044Z,40.42
2023-01-26T06:26:49.648Z,39.70
2023-01-26T06:29:21.795Z,41.17
2023-01-26T06:31:53.984Z,45.95
2023-01-26T06:34:26.420Z,44.10
2023-01-26T06:36:58.680Z,41.63
2023-01-26T06:39:30.594Z,40.05
2023-01-26T06:42:02.569Z,37.83
2023-01-26T06:44:34.479Z,34.88
2023-01-26T06:47:07.741Z,37.70
2023-01-26T06:49:39.696Z,39.13
2023-01-26T06:52:27.581Z,32.33
2023-01-26T06:55:00.788Z,33.95
2023-01-26T06:57:33.037Z,37.58
2023-01-26T07:00:06.333Z,39.28
2023-01-26T07:02:38.328Z,38.78
2023-01-26T07:05:11.405Z,38.33
2023-01-26T07:07:44.844Z,39.28
2023-01-26T07:10:17.010Z,37.20
2023-01-26T07:12:48.923Z,38.22
2023-01-26T07:15:20.878Z,36.00
2023-01-26T07:17:53.031Z,30.00
2023-01-26T07:20:25.395Z,31.08
2023-01-26T07:23:00.117Z,32.53
2023-01-26T07:25:32.063Z,33.85
2023-01-26T07:28:04.085Z,36.08
2023-01-26T07:30:36.082Z,36.20
2023-01-26T07:33:08.021Z,35.47
2023-01-26T07:35:40.035Z,31.05
2023-01-26T07:38:11.954Z,33.15
2023-01-26T07:40:43.923Z,32.03
2023-01-26T07:43:17.146Z,35.80
2023-01-26T07:45:53.607Z,33.72
2023-01-26T07:48:25.611Z,26.77
2023-01-26T07:51:01.965Z,30.88
2023-01-26T07:53:39.705Z,32.95
2023-01-26T07:56:14.006Z,31.17
2023-01-26T07:58:51.030Z,26.35
2023-01-26T08:01:23.313Z,28.40
2023-01-26T08:03:56.509Z,28.15
2023-01-26T08:06:28.467Z,28.27
2023-01-26T08:09:00.574Z,23.42
2023-01-26T08:11:32.572Z,21.70
2023-01-26T08:14:04.632Z,26.38
2023-01-26T08:16:36.778Z,22.08
2023-01-26T08:19:08.919Z,20.13
2023-01-26T08:21:40.904Z,20.08
2023-01-26T08:24:13.646Z,22.67
2023-01-26T08:26:45.659Z,23.88
2023-01-26T08:29:17.637Z,18.75
2023-01-26T08:31:49.673Z,22.08
2023-01-26T08:34:22.883Z,23.67
2023-01-26T08:36:54.830Z,19.38
2023-01-26T08:39:26.774Z,20.15
2023-01-26T08:41:58.779Z,20.67
2023-01-26T08:44:30.761Z,19.38
2023-01-26T08:47:03.140Z,17.55
2023-01-26T08:49:35.054Z,18.95
2023-01-26T08:52:07.074Z,17.65
2023-01-26T08:54:39.010Z,18.65
2023-01-26T08:57:12.557Z,17.63
2023-01-26T08:59:44.907Z,15.00
2023-01-26T09:02:17.074Z,16.83
2023-01-26T09:04:49.073Z,18.63
2023-01-26T09:07:21.254Z,15.88
2023-01-26T09:09:53.211Z,16.45
2023-01-26T09:12:25.327Z,21.25
2023-01-26T09:14:57.285Z,16.27
2023-01-26T09:17:29.893Z,16.15
2023-01-26T09:20:02.026Z,15.55
2023-01-26T09:22:33.966Z,20.42
2023-01-26T09:25:06.443Z,15.38
2023-01-26T09:27:38.653Z,18.73
2023-01-26T09:30:12.180Z,16.73
2023-01-26T09:32:44.193Z,15.88
2023-01-26T09:35:16.411Z,13.98
2023-01-26T09:37:48.626Z,18.95
2023-01-26T09:40:24.623Z,23.55
2023-01-26T09:43:05.606Z,29.63
2023-01-26T09:46:06.531Z,33.88
2023-01-26T09:48:52.994Z,31.45
2023-01-26T09:51:35.826Z,28.40
2023-01-26T09:54:44.933Z,22.60
2023-01-26T09:57:21.401Z,21.25
2023-01-26T10:00:03.075Z,17.67
2023-01-26T10:03:01.760Z,15.57
2023-01-26T10:06:11.035Z,18.45
2023-01-26T10:08:44.541Z,16.77
2023-01-26T10:11:27.618Z,19.50
2023-01-26T10:14:14.645Z,16.48
2023-01-26T10:16:50.803Z,16.48
2023-01-26T10:19:49.642Z,14.27
2023-01-26T10:22:38.715Z,14.70
2023-01-26T10:25:38.093Z,16.67
2023-01-26T10:28:19.512Z,23.45
2023-01-26T10:30:52.252Z,19.08
2023-01-26T10:33:33.190Z,13.18
2023-01-26T10:38:41.038Z,14.65
2023-01-26T10:41:18.987Z,13.27
2023-01-26T10:43:58.299Z,14.38
2023-01-26T10:46:42.014Z,14.77
2023-01-26T10:49:17.444Z,16.52
2023-01-26T10:52:09.424Z,12.15
2023-01-26T10:54:44.145Z,12.95
2023-01-26T10:57:29.187Z,12.65
2023-01-26T11:00:08.692Z,14.85
2023-01-26T11:02:51.095Z,18.75
2023-01-26T11:05:25.493Z,19.08
2023-01-26T11:08:03.401Z,16.42
2023-01-26T11:10:38.285Z,22.13
2023-01-26T11:13:20.305Z,16.83
2023-01-26T11:16:15.313Z,27.48
2023-01-26T11:19:42.942Z,23.50
2023-01-26T11:23:02.036Z,20.00
2023-01-26T11:26:16.350Z,18.35
2023-01-26T11:28:51.023Z,18.90
2023-01-26T11:31:44.447Z,19.92
2023-01-26T11:34:32.676Z,18.58
2023-01-26T11:37:16.629Z,18.85
2023-01-26T11:40:09.980Z,17.50
2023-01-26T11:43:02.729Z,15.10
2023-01-26T11:45:59.482Z,13.15
2023-01-26T11:49:06.560Z,13.85
2023-01-26T11:51:50.113Z,16.90
2023-01-26T11:54:36.385Z,13.10
2023-01-26T11:57:21.600Z,12.85
2023-01-26T12:00:06.308Z,16.05
2023-01-26T12:02:38.833Z,14.13
2023-01-26T12:05:25.652Z,21.05
2023-01-26T12:08:18.243Z,15.68
2023-01-26T12:11:22.926Z,20.80
2023-01-26T12:14:16.883Z,17.73
2023-01-26T12:17:17.766Z,48.65
2023-01-26T12:20:05.130Z,40.85
2023-01-26T12:22:41.013Z,20.75
2023-01-26T12:25:31.967Z,14.70
2023-01-26T12:28:09.110Z,16.70
2023-01-26T12:30:53.363Z,19.70
2023-01-26T12:33:26.141Z,19.13
2023-01-26T12:36:00.921Z,21.75
2023-01-26T12:38:42.023Z,20.00
2023-01-26T12:41:52.336Z,28.05
2023-01-26T12:44:27.449Z,21.40
2023-01-26T12:47:20.684Z,16.83
2023-01-26T12:50:02.613Z,15.88
2023-01-26T12:52:34.559Z,23.27
2023-01-26T12:55:31.686Z,17.63
2023-01-26T12:58:11.434Z,17.75
2023-01-26T13:00:59.725Z,16.48
2023-01-26T13:03:42.126Z,23.88
2023-01-26T13:06:14.104Z,24.33
2023-01-26T13:09:06.228Z,26.10
2023-01-26T13:11:59.378Z,25.08
2023-01-26T13:14:33.835Z,20.02
2023-01-26T13:17:27.550Z,17.60
2023-01-26T13:20:00.416Z,18.65
2023-01-26T13:22:41.606Z,16.83
2023-01-26T13:25:29.528Z,18.50
2023-01-26T13:28:03.597Z,24.65
2023-01-26T13:30:46.558Z,22.13
2023-01-26T13:33:25.135Z,18.65
2023-01-26T13:35:59.630Z,21.30
2023-01-26T13:38:40.723Z,21.80
2023-01-26T13:41:21.775Z,18.65
2023-01-26T13:44:00.004Z,19.00
2023-01-26T13:46:39.552Z,19.50
2023-01-26T13:49:37.983Z,27.35
2023-01-26T13:52:25.967Z,24.80
2023-01-26T13:55:02.329Z,24.17
2023-01-26T13:57:34.290Z,26.67
2023-01-26T14:00:12.084Z,25.58
2023-01-26T14:02:49.745Z,21.27
2023-01-26T14:05:23.519Z,36.83
2023-01-26T14:07:56.620Z,31.23
2023-01-26T14:10:28.892Z,37.17
2023-01-26T14:13:02.970Z,31.17
2023-01-26T14:15:35.391Z,28.15
2023-01-26T14:18:17.120Z,33.70
2023-01-26T14:20:49.144Z,40.80
2023-01-26T14:23:21.295Z,45.30
2023-01-26T14:26:06.092Z,34.30
2023-01-26T14:28:43.624Z,18.98
2023-01-26T14:31:26.387Z,18.88
2023-01-26T14:34:00.048Z,22.55
2023-01-26T14:36:39.431Z,19.60
2023-01-26T14:39:20.065Z,22.00
2023-01-26T14:41:52.170Z,24.67
2023-01-26T14:44:24.221Z,26.92
2023-01-26T14:47:02.402Z,24.20
2023-01-26T14:49:47.208Z,25.77
2023-01-26T14:52:40.720Z,40.30
2023-01-26T14:55:21.264Z,35.55
2023-01-26T14:57:54.397Z,30.25
2023-01-26T15:00:30.900Z,24.98
2023-01-26T15:03:07.704Z,28.00
2023-01-26T15:05:42.448Z,25.83
2023-01-26T15:08:24.753Z,25.67
2023-01-26T15:11:19.636Z,24.17
2023-01-26T15:13:56.011Z,22.00
2023-01-26T15:16:28.146Z,23.33
2023-01-26T15:19:02.309Z,30.52
2023-01-26T15:21:44.028Z,23.75
2023-01-26T15:24:16.485Z,49.25
2023-01-26T15:26:50.367Z,72.10
2023-01-26T15:29:28.795Z,37.95
2023-01-26T15:32:01.069Z,26.25
2023-01-26T15:34:37.038Z,24.65
2023-01-26T15:37:29.060Z,26.67
2023-01-26T15:40:01.154Z,29.23
2023-01-26T15:42:33.687Z,24.98
2023-01-26T15:45:26.197Z,33.40
2023-01-26T15:47:58.196Z,29.90
2023-01-26T15:50:30.125Z,33.00
2023-01-26T15:53:02.095Z,28.58
2023-01-26T15:55:34.300Z,45.10
2023-01-26T15:58:06.169Z,42.38
2023-01-26T16:00:38.168Z,42.50
2023-01-26T16:03:16.645Z,42.72
2023-01-26T16:05:49.219Z,43.85
2023-01-26T16:08:21.144Z,44.40
2023-01-26T16:10:54.887Z,47.83
2023-01-26T16:13:27.051Z,46.65
2023-01-26T16:15:59.303Z,47.88
2023-01-26T16:18:31.225Z,38.67
2023-01-26T16:21:16.119Z,44.95
2023-01-26T16:23:48.709Z,45.25
2023-01-26T16:26:20.967Z,42.25
2023-01-26T16:28:52.984Z,45.88
2023-01-26T16:31:32.924Z,39.80
2023-01-26T16:34:05.097Z,57.92
2023-01-26T16:36:37.042Z,60.08
2023-01-26T16:39:09.042Z,51.67
2023-01-26T16:41:41.011Z,44.28
2023-01-26T16:44:15.428Z,41.30
2023-01-26T16:46:47.552Z,46.97
2023-01-26T16:49:19.548Z,45.38
2023-01-26T16:51:51.520Z,53.53
2023-01-26T16:54:23.453Z,55.67
2023-01-26T16:56:55.565Z,56.63
2023-01-26T16:59:27.484Z,53.92
2023-01-26T17:01:59.663Z,45.95
2023-01-26T17:04:31.669Z,46.97
2023-01-26T17:07:03.655Z,63.50
2023-01-26T17:09:35.623Z,63.47
2023-01-26T17:12:09.211Z,79.22
2023-01-26T17:14:41.208Z,67.47
2023-01-26T17:17:13.141Z,66.07
2023-01-26T17:19:45.264Z,70.93
2023-01-26T17:22:17.272Z,63.85
2023-01-26T17:24:49.924Z,63.30
2023-01-26T17:27:22.203Z,55.72
2023-01-26T17:29:56.380Z,46.13
2023-01-26T17:32:28.660Z,43.17
2023-01-26T17:35:00.587Z,43.38
2023-01-26T17:37:32.558Z,41.28
2023-01-26T17:40:05.845Z,45.28
2023-01-26T17:42:37.814Z,49.17
2023-01-26T17:45:10.746Z,55.15
2023-01-26T17:47:43.913Z,60.33
2023-01-26T17:50:16.245Z,51.28
2023-01-26T17:52:48.639Z,53.75
2023-01-26T17:55:20.762Z,55.97
2023-01-26T17:57:52.819Z,56.53
2023-01-26T18:00:24.746Z,51.97
2023-01-26T18:02:57.024Z,56.80
2023-01-26T18:05:28.916Z,52.25
2023-01-26T18:08:00.864Z,56.58
2023-01-26T18:10:33.049Z,62.60
2023-01-26T18:13:04.990Z,58.15
2023-01-26T18:15:37.732Z,77.50
2023-01-26T18:18:09.684Z,60.55
2023-01-26T18:20:41.742Z,59.75
2023-01-26T18:23:13.685Z,69.00
2023-01-26T18:25:46.395Z,64.90
2023-01-26T18:28:18.750Z,70.35
2023-01-26T18:30:50.757Z,67.53
2023-01-26T18:33:22.800Z,66.50
2023-01-26T18:36:03.611Z,65.63
2023-01-26T18:41:16.283Z,74.80
2023-01-26T18:43:52.157Z,66.68
2023-01-26T18:46:25.026Z,68.20
2023-01-26T18:49:03.968Z,70.15
2023-01-26T18:51:36.653Z,71.20
2023-01-26T18:54:09.943Z,74.30
2023-01-26T18:56:42.240Z,70.57
2023-01-26T18:59:14.211Z,73.10
2023-01-26T19:01:46.143Z,65.63
2023-01-26T19:04:18.464Z,56.42
2023-01-26T19:06:50.491Z,51.45
2023-01-26T19:09:22.956Z,46.97
2023-01-26T19:11:55.760Z,49.25
2023-01-26T19:14:29.277Z,44.17
2023-01-26T19:17:01.770Z,43.58
2023-01-26T19:19:34.519Z,48.22
2023-01-26T19:22:06.499Z,50.25
2023-01-26T19:24:38.432Z,60.15
2023-01-26T19:27:11.246Z,68.55
2023-01-26T19:29:43.207Z,70.55
2023-01-26T19:32:15.179Z,83.05
2023-01-26T19:34:47.130Z,74.45
2023-01-26T19:37:19.329Z,88.35
2023-01-26T19:39:51.311Z,87.40
2023-01-26T19:42:23.320Z,85.07
2023-01-26T19:44:55.184Z,70.93
2023-01-26T19:47:27.205Z,57.15
2023-01-26T19:49:59.160Z,58.03
2023-01-26T19:52:31.104Z,57.10
2023-01-26T19:55:03.073Z,62.88
2023-01-26T19:57:36.471Z,58.65
2023-01-26T20:00:09.241Z,69.90
2023-01-26T20:02:41.416Z,68.65
2023-01-26T20:05:13.629Z,74.45
2023-01-26T20:07:45.680Z,70.70
2023-01-26T20:10:17.782Z,70.07
2023-01-26T20:12:49.749Z,68.80
2023-01-26T20:15:21.669Z,68.20
2023-01-26T20:17:53.556Z,57.55
2023-01-26T20:20:25.496Z,65.38
2023-01-26T20:22:57.920Z,71.78
2023-01-26T20:25:30.848Z,72.32
2023-01-26T20:28:02.765Z,71.53
2023-01-26T20:30:35.026Z,75.95
2023-01-26T20:33:07.731Z,84.20
2023-01-26T20:35:40.951Z,84.60
2023-01-26T20:38:12.999Z,92.32
2023-01-26T20:40:44.949Z,113.07
2023-01-26T20:43:17.038Z,112.70
2023-01-26T20:45:49.246Z,110.47
2023-01-26T20:48:21.107Z,114.18
2023-01-26T20:50:53.490Z,106.05
2023-01-26T20:53:25.427Z,102.40
2023-01-26T20:56:00.303Z,101.28
2023-01-26T20:58:32.245Z,93.82
2023-01-26T21:01:06.728Z,92.18
2023-01-26T21:03:39.544Z,87.50
2023-01-26T21:06:14.425Z,89.07
2023-01-26T21:08:47.767Z,89.82
2023-01-26T21:11:20.960Z,84.45
2023-01-26T21:13:55.321Z,80.47
2023-01-26T21:16:27.806Z,90.70
2023-01-26T21:19:00.266Z,91.15
2023-01-26T21:21:33.048Z,88.50
2023-01-26T21:24:05.316Z,91.50
2023-01-26T21:26:37.617Z,93.70
2023-01-26T21:29:13.560Z,84.35
2023-01-26T21:31:49.606Z,95.43
2023-01-26T21:34:21.583Z,94.32
2023-01-26T21:36:53.558Z,99.53
2023-01-26T21:39:25.633Z,124.60
2023-01-26T21:41:57.776Z,111.57
2023-01-26T21:44:31.733Z,114.47
2023-01-26T21:47:04.246Z,120.50
2023-01-26T21:49:36.163Z,121.07
2023-01-26T21:52:28.071Z,119.13
2023-01-26T21:55:00.099Z,116.88
2023-01-26T21:57:51.003Z,111.13
2023-01-26T22:00:23.102Z,108.68
2023-01-26T22:02:56.863Z,111.18
2023-01-26T22:05:29.123Z,113.63
2023-01-26T22:08:01.119Z,106.35
2023-01-26T22:10:33.055Z,112.28
2023-01-26T22:13:05.216Z,106.90
2023-01-26T22:15:37.146Z,126.28
2023-01-26T22:18:09.078Z,128.75
2023-01-26T22:20:41.040Z,132.25
2023-01-26T22:23:14.335Z,152.88
2023-01-26T22:25:46.272Z,146.98
2023-01-26T22:28:18.252Z,132.35
2023-01-26T22:30:50.203Z,146.23
2023-01-26T22:33:22.164Z,143.57
2023-01-26T22:36:08.494Z,137.82
2023-01-26T22:38:40.677Z,142.15
2023-01-26T22:41:21.612Z,147.15
2023-01-26T22:43:55.564Z,148.52
2023-01-26T22:46:29.108Z,150.80
2023-01-26T22:49:01.292Z,151.50
2023-01-26T22:51:38.815Z,129.45
2023-01-26T22:54:11.082Z,140.95
2023-01-26T22:56:42.903Z,122.45
2023-01-26T22:59:14.863Z,121.35
2023-01-26T23:01:46.955Z,128.35
2023-01-26T23:04:18.912Z,128.98
2023-01-26T23:06:50.926Z,129.43
2023-01-26T23:09:22.933Z,122.85
2023-01-26T23:11:54.881Z,113.63
2023-01-26T23:14:26.813Z,122.45
2023-01-26T23:16:59.379Z,126.65
2023-01-26T23:19:33.854Z,122.47
2023-01-26T23:22:06.020Z,112.95
2023-01-26T23:24:37.946Z,113.15
2023-01-26T23:27:09.887Z,133.73
2023-01-26T23:29:41.841Z,133.38
2023-01-26T23:32:13.783Z,119.93
2023-01-26T23:34:45.736Z,127.03
2023-01-26T23:37:17.669Z,103.55
2023-01-26T23:39:49.611Z,106.97
2023-01-26T23:42:21.541Z,112.95
2023-01-26T23:44:53.521Z,114.55
2023-01-26T23:47:25.574Z,114.72
2023-01-26T23:49:57.604Z,109.63
2023-01-26T23:52:29.521Z,99.45
2023-01-26T23:55:01.545Z,128.73
2023-01-26T23:57:33.892Z,122.78
